sensor_id;sensor_type;location;lat;lon;timestamp;temperature;humidity
5492;DHT22;2768;53.540;10.224;2023-06-26T00:00:55;23.60;99.90
5492;DHT22;2768;53.540;10.224;2023-06-26T00:06:50;23.60;99.90
5492;DHT22;2768;53.540;10.224;2023-06-26T00:12:43;23.50;99.90
5492;DHT22;2768;53.540;10.224;2023-06-26T00:18:37;23.50;99.90
5492;DHT22;2768;53.540;10.224;2023-06-26T00:24:32;23.60;99.90
5492;DHT22;2768;53.540;10.224;2023-06-26T00:30:26;23.60;99.90
5492;DHT22;2768;53.540;10.224;2023-06-26T00:36:21;23.60;99.90
5492;DHT22;2768;53.540;10.224;2023-06-26T00:42:17;23.60;99.90
5492;DHT22;2768;53.540;10.224;2023-06-26T00:48:10;23.60;99.90
5492;DHT22;2768;53.540;10.224;2023-06-26T00:54:04;23.40;99.90
5492;DHT22;2768;53.540;10.224;2023-06-26T01:00:00;23.40;99.90
5492;DHT22;2768;53.540;10.224;2023-06-26T01:05:56;23.50;99.90
5492;DHT22;2768;53.540;10.224;2023-06-26T01:11:51;23.30;99.90
5492;DHT22;2768;53.540;10.224;2023-06-26T01:17:48;23.30;99.90
5492;DHT22;2768;53.540;10.224;2023-06-26T01:23:56;23.30;99.90
5492;DHT22;2768;53.540;10.224;2023-06-26T01:29:52;23.30;99.90
5492;DHT22;2768;53.540;10.224;2023-06-26T01:35:48;23.10;99.90
5492;DHT22;2768;53.540;10.224;2023-06-26T01:41:41;23.10;99.90
5492;DHT22;2768;53.540;10.224;2023-06-26T01:47:38;22.90;99.90
5492;DHT22;2768;53.540;10.224;2023-06-26T01:53:37;23.00;99.90
5492;DHT22;2768;53.540;10.224;2023-06-26T01:59:32;23.00;99.90
5492;DHT22;2768;53.540;10.224;2023-06-26T02:05:28;22.90;99.90
5492;DHT22;2768;53.540;10.224;2023-06-26T02:11:24;23.00;99.90
5492;DHT22;2768;53.540;10.224;2023-06-26T02:17:18;22.90;99.90
5492;DHT22;2768;53.540;10.224;2023-06-26T02:23:13;22.80;99.90
5492;DHT22;2768;53.540;10.224;2023-06-26T02:29:06;22.90;99.90
5492;DHT22;2768;53.540;10.224;2023-06-26T02:35:00;22.90;99.90
5492;DHT22;2768;53.540;10.224;2023-06-26T02:40:55;22.90;99.90
5492;DHT22;2768;53.540;10.224;2023-06-26T02:46:48;22.70;99.90
5492;DHT22;2768;53.540;10.224;2023-06-26T02:52:42;22.90;99.90
5492;DHT22;2768;53.540;10.224;2023-06-26T02:58:36;22.70;99.90
5492;DHT22;2768;53.540;10.224;2023-06-26T03:04:30;22.60;99.90
5492;DHT22;2768;53.540;10.224;2023-06-26T03:10:25;22.70;99.90
5492;DHT22;2768;53.540;10.224;2023-06-26T03:16:20;22.60;99.90
5492;DHT22;2768;53.540;10.224;2023-06-26T03:22:13;22.60;99.90
5492;DHT22;2768;53.540;10.224;2023-06-26T03:28:07;22.60;99.90
5492;DHT22;2768;53.540;10.224;2023-06-26T03:34:02;22.40;99.90
5492;DHT22;2768;53.540;10.224;2023-06-26T03:39:55;22.50;99.90
5492;DHT22;2768;53.540;10.224;2023-06-26T03:45:48;22.40;99.90
5492;DHT22;2768;53.540;10.224;2023-06-26T03:51:44;22.40;99.90
5492;DHT22;2768;53.540;10.224;2023-06-26T03:57:38;22.40;99.90
5492;DHT22;2768;53.540;10.224;2023-06-26T04:03:34;22.60;99.90
5492;DHT22;2768;53.540;10.224;2023-06-26T04:09:29;22.60;99.90
5492;DHT22;2768;53.540;10.224;2023-06-26T04:15:26;22.70;99.90
5492;DHT22;2768;53.540;10.224;2023-06-26T04:21:19;22.70;99.90
5492;DHT22;2768;53.540;10.224;2023-06-26T04:27:14;22.60;99.90
5492;DHT22;2768;53.540;10.224;2023-06-26T04:33:07;22.70;99.90
5492;DHT22;2768;53.540;10.224;2023-06-26T04:39:05;22.70;99.90
5492;DHT22;2768;53.540;10.224;2023-06-26T04:45:03;22.70;99.90
5492;DHT22;2768;53.540;10.224;2023-06-26T04:50:57;22.60;99.90
5492;DHT22;2768;53.540;10.224;2023-06-26T04:56:51;22.70;99.90
5492;DHT22;2768;53.540;10.224;2023-06-26T05:02:46;22.70;99.90
5492;DHT22;2768;53.540;10.224;2023-06-26T05:08:39;22.70;99.90
5492;DHT22;2768;53.540;10.224;2023-06-26T05:14:33;22.70;99.90
5492;DHT22;2768;53.540;10.224;2023-06-26T05:20:29;22.70;99.90
5492;DHT22;2768;53.540;10.224;2023-06-26T05:26:23;22.70;98.30
5492;DHT22;2768;53.540;10.224;2023-06-26T05:32:17;22.90;94.60
5492;DHT22;2768;53.540;10.224;2023-06-26T05:38:13;22.80;93.00
5492;DHT22;2768;53.540;10.224;2023-06-26T05:44:07;22.90;92.30
5492;DHT22;2768;53.540;10.224;2023-06-26T05:50:01;23.00;92.90
5492;DHT22;2768;53.540;10.224;2023-06-26T05:55:57;23.00;92.00
5492;DHT22;2768;53.540;10.224;2023-06-26T06:01:50;23.10;82.70
5492;DHT22;2768;53.540;10.224;2023-06-26T06:07:45;23.10;80.30
5492;DHT22;2768;53.540;10.224;2023-06-26T06:13:39;23.20;81.50
5492;DHT22;2768;53.540;10.224;2023-06-26T06:19:33;23.30;75.50
5492;DHT22;2768;53.540;10.224;2023-06-26T06:25:26;23.40;79.80
5492;DHT22;2768;53.540;10.224;2023-06-26T06:31:22;23.40;70.90
5492;DHT22;2768;53.540;10.224;2023-06-26T06:37:15;23.40;70.90
5492;DHT22;2768;53.540;10.224;2023-06-26T06:43:08;23.60;74.60
5492;DHT22;2768;53.540;10.224;2023-06-26T06:49:03;23.60;76.90
5492;DHT22;2768;53.540;10.224;2023-06-26T06:54:57;23.80;72.70
5492;DHT22;2768;53.540;10.224;2023-06-26T07:00:51;23.80;73.70
5492;DHT22;2768;53.540;10.224;2023-06-26T07:06:46;23.80;82.20
5492;DHT22;2768;53.540;10.224;2023-06-26T07:12:39;23.90;82.80
5492;DHT22;2768;53.540;10.224;2023-06-26T07:18:33;24.00;89.50
5492;DHT22;2768;53.540;10.224;2023-06-26T07:24:28;24.10;79.50
5492;DHT22;2768;53.540;10.224;2023-06-26T07:30:21;24.10;76.20
5492;DHT22;2768;53.540;10.224;2023-06-26T07:36:15;24.30;76.50
5492;DHT22;2768;53.540;10.224;2023-06-26T07:42:11;24.40;71.80
5492;DHT22;2768;53.540;10.224;2023-06-26T07:48:06;24.40;59.70
5492;DHT22;2768;53.540;10.224;2023-06-26T07:54:01;24.60;64.50
5492;DHT22;2768;53.540;10.224;2023-06-26T07:59:56;24.70;59.60
5492;DHT22;2768;53.540;10.224;2023-06-26T08:05:49;24.80;54.50
5492;DHT22;2768;53.540;10.224;2023-06-26T08:11:43;24.90;63.20
5492;DHT22;2768;53.540;10.224;2023-06-26T08:17:38;25.00;67.60
5492;DHT22;2768;53.540;10.224;2023-06-26T08:23:32;25.10;63.90
5492;DHT22;2768;53.540;10.224;2023-06-26T08:29:25;25.20;40.80
5492;DHT22;2768;53.540;10.224;2023-06-26T08:35:20;25.20;49.70
5492;DHT22;2768;53.540;10.224;2023-06-26T08:41:14;25.40;42.50
5492;DHT22;2768;53.540;10.224;2023-06-26T08:47:07;25.40;33.50
5492;DHT22;2768;53.540;10.224;2023-06-26T08:53:06;25.60;30.50
5492;DHT22;2768;53.540;10.224;2023-06-26T08:59:04;25.70;23.60
5492;DHT22;2768;53.540;10.224;2023-06-26T09:04:58;25.80;23.00
5492;DHT22;2768;53.540;10.224;2023-06-26T09:10:53;26.00;22.30
5492;DHT22;2768;53.540;10.224;2023-06-26T09:16:46;26.00;18.10
5492;DHT22;2768;53.540;10.224;2023-06-26T09:22:41;26.00;18.00
5492;DHT22;2768;53.540;10.224;2023-06-26T09:28:36;26.10;19.60
5492;DHT22;2768;53.540;10.224;2023-06-26T09:34:32;26.30;15.40
5492;DHT22;2768;53.540;10.224;2023-06-26T09:40:27;26.20;18.10
5492;DHT22;2768;53.540;10.224;2023-06-26T09:46:26;26.30;19.20
5492;DHT22;2768;53.540;10.224;2023-06-26T09:52:20;26.50;18.30
5492;DHT22;2768;53.540;10.224;2023-06-26T09:58:13;26.50;20.80
5492;DHT22;2768;53.540;10.224;2023-06-26T10:04:08;26.30;26.20
5492;DHT22;2768;53.540;10.224;2023-06-26T10:10:05;26.00;28.00
5492;DHT22;2768;53.540;10.224;2023-06-26T10:15:59;25.60;33.20
5492;DHT22;2768;53.540;10.224;2023-06-26T10:21:55;25.20;61.10
5492;DHT22;2768;53.540;10.224;2023-06-26T10:27:52;24.90;77.50
5492;DHT22;2768;53.540;10.224;2023-06-26T10:33:48;24.70;89.10
5492;DHT22;2768;53.540;10.224;2023-06-26T10:39:50;24.40;99.90
5492;DHT22;2768;53.540;10.224;2023-06-26T10:45:45;23.40;99.90
5492;DHT22;2768;53.540;10.224;2023-06-26T10:51:46;22.00;1.00
5492;DHT22;2768;53.540;10.224;2023-06-26T10:57:45;21.70;1.00
5492;DHT22;2768;53.540;10.224;2023-06-26T11:03:41;21.30;1.00
5492;DHT22;2768;53.540;10.224;2023-06-26T11:09:54;21.50;1.00
5492;DHT22;2768;53.540;10.224;2023-06-26T11:15:50;21.40;1.00
5492;DHT22;2768;53.540;10.224;2023-06-26T11:21:43;21.20;1.00
5492;DHT22;2768;53.540;10.224;2023-06-26T11:27:38;21.40;1.00
5492;DHT22;2768;53.540;10.224;2023-06-26T11:33:33;21.50;1.00
5492;DHT22;2768;53.540;10.224;2023-06-26T11:39:26;22.00;1.00
5492;DHT22;2768;53.540;10.224;2023-06-26T11:45:20;22.20;1.00
5492;DHT22;2768;53.540;10.224;2023-06-26T11:51:15;22.40;1.00
5492;DHT22;2768;53.540;10.224;2023-06-26T11:57:13;22.90;1.00
5492;DHT22;2768;53.540;10.224;2023-06-26T12:03:07;22.90;99.90
5492;DHT22;2768;53.540;10.224;2023-06-26T12:09:04;22.90;99.90
5492;DHT22;2768;53.540;10.224;2023-06-26T12:14:57;22.60;99.90
5492;DHT22;2768;53.540;10.224;2023-06-26T12:20:52;22.90;99.90
5492;DHT22;2768;53.540;10.224;2023-06-26T12:26:49;22.70;99.90
5492;DHT22;2768;53.540;10.224;2023-06-26T12:32:44;22.50;99.90
5492;DHT22;2768;53.540;10.224;2023-06-26T12:38:40;22.80;99.90
5492;DHT22;2768;53.540;10.224;2023-06-26T12:44:36;22.80;99.90
5492;DHT22;2768;53.540;10.224;2023-06-26T12:50:37;22.80;99.90
5492;DHT22;2768;53.540;10.224;2023-06-26T12:56:31;23.10;99.90
5492;DHT22;2768;53.540;10.224;2023-06-26T13:02:26;23.10;99.90
5492;DHT22;2768;53.540;10.224;2023-06-26T13:08:19;23.10;99.90
5492;DHT22;2768;53.540;10.224;2023-06-26T13:14:13;23.50;99.90
5492;DHT22;2768;53.540;10.224;2023-06-26T13:20:09;23.70;99.90
5492;DHT22;2768;53.540;10.224;2023-06-26T13:26:02;23.50;71.00
5492;DHT22;2768;53.540;10.224;2023-06-26T13:31:58;23.80;55.30
5492;DHT22;2768;53.540;10.224;2023-06-26T13:37:54;23.90;50.60
5492;DHT22;2768;53.540;10.224;2023-06-26T13:43:47;23.80;42.70
5492;DHT22;2768;53.540;10.224;2023-06-26T13:49:41;23.80;29.80
5492;DHT22;2768;53.540;10.224;2023-06-26T13:55:35;24.10;25.10
5492;DHT22;2768;53.540;10.224;2023-06-26T14:01:30;23.90;16.70
5492;DHT22;2768;53.540;10.224;2023-06-26T14:07:24;23.90;2.90
5492;DHT22;2768;53.540;10.224;2023-06-26T14:13:19;24.10;3.40
5492;DHT22;2768;53.540;10.224;2023-06-26T14:19:14;23.40;1.00
5492;DHT22;2768;53.540;10.224;2023-06-26T14:25:10;23.90;4.60
5492;DHT22;2768;53.540;10.224;2023-06-26T14:31:05;24.70;1.00
5492;DHT22;2768;53.540;10.224;2023-06-26T14:36:58;23.80;1.00
5492;DHT22;2768;53.540;10.224;2023-06-26T14:42:52;23.40;1.00
5492;DHT22;2768;53.540;10.224;2023-06-26T14:48:48;23.20;1.00
5492;DHT22;2768;53.540;10.224;2023-06-26T14:54:43;23.40;1.00
5492;DHT22;2768;53.540;10.224;2023-06-26T15:00:36;23.30;1.00
5492;DHT22;2768;53.540;10.224;2023-06-26T15:06:32;22.90;1.00
5492;DHT22;2768;53.540;10.224;2023-06-26T15:12:25;22.70;1.00
5492;DHT22;2768;53.540;10.224;2023-06-26T15:18:19;22.90;1.00
5492;DHT22;2768;53.540;10.224;2023-06-26T15:24:14;22.90;1.00
5492;DHT22;2768;53.540;10.224;2023-06-26T15:30:08;22.80;1.00
5492;DHT22;2768;53.540;10.224;2023-06-26T15:36:01;22.90;1.00
5492;DHT22;2768;53.540;10.224;2023-06-26T15:41:57;22.70;1.00
5492;DHT22;2768;53.540;10.224;2023-06-26T15:47:50;22.40;1.00
5492;DHT22;2768;53.540;10.224;2023-06-26T15:53:44;22.50;1.00
5492;DHT22;2768;53.540;10.224;2023-06-26T15:59:39;22.40;1.00
5492;DHT22;2768;53.540;10.224;2023-06-26T16:05:32;22.40;1.00
5492;DHT22;2768;53.540;10.224;2023-06-26T16:11:25;22.60;1.00
5492;DHT22;2768;53.540;10.224;2023-06-26T16:17:20;22.50;1.00
5492;DHT22;2768;53.540;10.224;2023-06-26T16:23:13;22.20;1.00
5492;DHT22;2768;53.540;10.224;2023-06-26T16:29:06;21.90;1.00
5492;DHT22;2768;53.540;10.224;2023-06-26T16:35:06;21.80;1.00
5492;DHT22;2768;53.540;10.224;2023-06-26T16:40:59;21.80;1.00
5492;DHT22;2768;53.540;10.224;2023-06-26T16:46:56;21.80;1.00
5492;DHT22;2768;53.540;10.224;2023-06-26T16:52:51;22.00;1.00
5492;DHT22;2768;53.540;10.224;2023-06-26T16:58:44;21.80;1.00
5492;DHT22;2768;53.540;10.224;2023-06-26T17:04:38;21.60;1.00
5492;DHT22;2768;53.540;10.224;2023-06-26T17:10:32;21.60;1.00
5492;DHT22;2768;53.540;10.224;2023-06-26T17:16:26;21.60;1.00
5492;DHT22;2768;53.540;10.224;2023-06-26T17:22:19;21.30;1.00
5492;DHT22;2768;53.540;10.224;2023-06-26T17:28:13;21.20;1.00
5492;DHT22;2768;53.540;10.224;2023-06-26T17:34:08;21.20;1.00
5492;DHT22;2768;53.540;10.224;2023-06-26T17:40:01;21.20;1.00
5492;DHT22;2768;53.540;10.224;2023-06-26T17:45:59;21.30;4.20
5492;DHT22;2768;53.540;10.224;2023-06-26T17:51:52;21.30;4.40
5492;DHT22;2768;53.540;10.224;2023-06-26T17:57:45;21.20;10.70
5492;DHT22;2768;53.540;10.224;2023-06-26T18:03:40;21.00;14.60
5492;DHT22;2768;53.540;10.224;2023-06-26T18:09:33;21.10;23.90
5492;DHT22;2768;53.540;10.224;2023-06-26T18:15:26;21.00;14.70
5492;DHT22;2768;53.540;10.224;2023-06-26T18:21:23;20.80;14.50
5492;DHT22;2768;53.540;10.224;2023-06-26T18:27:17;20.90;14.60
5492;DHT22;2768;53.540;10.224;2023-06-26T18:33:10;20.60;14.30
5492;DHT22;2768;53.540;10.224;2023-06-26T18:39:04;20.60;9.10
5492;DHT22;2768;53.540;10.224;2023-06-26T18:44:58;20.70;11.70
5492;DHT22;2768;53.540;10.224;2023-06-26T18:50:51;20.50;8.00
5492;DHT22;2768;53.540;10.224;2023-06-26T18:56:46;20.50;8.40
5492;DHT22;2768;53.540;10.224;2023-06-26T19:02:39;20.50;1.00
5492;DHT22;2768;53.540;10.224;2023-06-26T19:08:33;20.40;1.00
5492;DHT22;2768;53.540;10.224;2023-06-26T19:14:28;20.30;5.50
5492;DHT22;2768;53.540;10.224;2023-06-26T19:20:21;20.20;14.10
5492;DHT22;2768;53.540;10.224;2023-06-26T19:26:14;20.10;20.90
5492;DHT22;2768;53.540;10.224;2023-06-26T19:32:09;19.90;33.80
5492;DHT22;2768;53.540;10.224;2023-06-26T19:38:03;19.90;41.40
5492;DHT22;2768;53.540;10.224;2023-06-26T19:43:58;20.00;43.20
5492;DHT22;2768;53.540;10.224;2023-06-26T19:49:53;19.90;41.60
5492;DHT22;2768;53.540;10.224;2023-06-26T19:55:46;19.90;43.90
5492;DHT22;2768;53.540;10.224;2023-06-26T20:01:39;19.60;50.70
5492;DHT22;2768;53.540;10.224;2023-06-26T20:07:37;19.70;54.80
5492;DHT22;2768;53.540;10.224;2023-06-26T20:13:31;19.60;56.60
5492;DHT22;2768;53.540;10.224;2023-06-26T20:19:24;19.50;56.60
5492;DHT22;2768;53.540;10.224;2023-06-26T20:25:19;19.50;58.00
5492;DHT22;2768;53.540;10.224;2023-06-26T20:31:12;19.40;67.50
5492;DHT22;2768;53.540;10.224;2023-06-26T20:37:06;19.30;78.90
5492;DHT22;2768;53.540;10.224;2023-06-26T20:43:02;19.10;67.30
5492;DHT22;2768;53.540;10.224;2023-06-26T20:48:56;19.00;66.90
5492;DHT22;2768;53.540;10.224;2023-06-26T20:54:49;18.80;65.90
5492;DHT22;2768;53.540;10.224;2023-06-26T21:00:45;18.70;61.00
5492;DHT22;2768;53.540;10.224;2023-06-26T21:06:38;18.70;63.60
5492;DHT22;2768;53.540;10.224;2023-06-26T21:12:31;18.80;55.70
5492;DHT22;2768;53.540;10.224;2023-06-26T21:18:26;18.70;65.10
5492;DHT22;2768;53.540;10.224;2023-06-26T21:24:19;18.80;62.50
5492;DHT22;2768;53.540;10.224;2023-06-26T21:30:13;18.80;66.60
5492;DHT22;2768;53.540;10.224;2023-06-26T21:36:08;18.60;97.20
5492;DHT22;2768;53.540;10.224;2023-06-26T21:42:02;18.40;99.90
5492;DHT22;2768;53.540;10.224;2023-06-26T21:47:55;18.50;99.90
5492;DHT22;2768;53.540;10.224;2023-06-26T21:53:49;18.30;99.90
5492;DHT22;2768;53.540;10.224;2023-06-26T21:59:43;18.40;99.90
5492;DHT22;2768;53.540;10.224;2023-06-26T22:05:36;18.50;99.90
5492;DHT22;2768;53.540;10.224;2023-06-26T22:11:30;18.30;99.90
5492;DHT22;2768;53.540;10.224;2023-06-26T22:17:24;18.20;99.90
5492;DHT22;2768;53.540;10.224;2023-06-26T22:23:17;18.20;99.90
5492;DHT22;2768;53.540;10.224;2023-06-26T22:29:12;18.20;99.90
5492;DHT22;2768;53.540;10.224;2023-06-26T22:35:05;18.00;99.90
5492;DHT22;2768;53.540;10.224;2023-06-26T22:40:59;18.10;99.90
5492;DHT22;2768;53.540;10.224;2023-06-26T22:46:53;18.00;99.90
5492;DHT22;2768;53.540;10.224;2023-06-26T22:52:46;17.80;99.90
5492;DHT22;2768;53.540;10.224;2023-06-26T22:58:40;18.00;99.90
5492;DHT22;2768;53.540;10.224;2023-06-26T23:04:34;17.70;99.90
5492;DHT22;2768;53.540;10.224;2023-06-26T23:10:28;17.70;99.90
5492;DHT22;2768;53.540;10.224;2023-06-26T23:16:21;17.80;99.90
5492;DHT22;2768;53.540;10.224;2023-06-26T23:22:16;17.70;99.90
5492;DHT22;2768;53.540;10.224;2023-06-26T23:28:12;17.80;99.90
5492;DHT22;2768;53.540;10.224;2023-06-26T23:34:05;17.70;99.90
5492;DHT22;2768;53.540;10.224;2023-06-26T23:40:02;17.70;99.90
5492;DHT22;2768;53.540;10.224;2023-06-26T23:45:57;17.60;99.90
5492;DHT22;2768;53.540;10.224;2023-06-26T23:51:53;17.50;99.90
5492;DHT22;2768;53.540;10.224;2023-06-26T23:57:48;17.60;99.90
